sensor_id;sensor_type;location;lat;lon;timestamp;pressure;altitude;pressure_sealevel;temperature;humidity
72612;BME280;60655;52.182;4.474;2024-03-29T00:00:03;98752.31;;;10.08;75.02
72612;BME280;60655;52.182;4.474;2024-03-29T00:02:04;98753.91;;;10.09;74.82
72612;BME280;60655;52.182;4.474;2024-03-29T00:04:05;98751.75;;;10.06;75.26
72612;BME280;60655;52.182;4.474;2024-03-29T00:06:06;98748.03;;;10.02;75.11
72612;BME280;60655;52.182;4.474;2024-03-29T00:08:07;98755.47;;;10.05;75.64
72612;BME280;60655;52.182;4.474;2024-03-29T00:10:08;98741.66;;;9.98;75.59
72612;BME280;60655;52.182;4.474;2024-03-29T00:12:09;98758.13;;;10.00;75.63
72612;BME280;60655;52.182;4.474;2024-03-29T00:14:10;98762.63;;;10.00;75.71
72612;BME280;60655;52.182;4.474;2024-03-29T00:16:10;98763.41;;;9.95;75.69
72612;BME280;60655;52.182;4.474;2024-03-29T00:18:12;98755.72;;;9.99;76.00
72612;BME280;60655;52.182;4.474;2024-03-29T00:20:13;98762.91;;;10.03;76.02
72612;BME280;60655;52.182;4.474;2024-03-29T00:22:14;98747.22;;;9.97;75.59
72612;BME280;60655;52.182;4.474;2024-03-29T00:24:15;98760.22;;;9.98;75.69
72612;BME280;60655;52.182;4.474;2024-03-29T00:26:16;98766.59;;;9.97;75.44
72612;BME280;60655;52.182;4.474;2024-03-29T00:28:17;98759.69;;;9.96;75.61
72612;BME280;60655;52.182;4.474;2024-03-29T00:30:18;98761.81;;;9.94;75.86
72612;BME280;60655;52.182;4.474;2024-03-29T00:32:22;98771.34;;;9.90;75.84
72612;BME280;60655;52.182;4.474;2024-03-29T00:34:23;98765.53;;;9.93;75.45
72612;BME280;60655;52.182;4.474;2024-03-29T00:36:24;98762.88;;;9.98;75.52
72612;BME280;60655;52.182;4.474;2024-03-29T00:38:25;98763.16;;;9.97;75.61
72612;BME280;60655;52.182;4.474;2024-03-29T00:40:26;98751.75;;;9.96;75.63
72612;BME280;60655;52.182;4.474;2024-03-29T00:42:27;98778.03;;;10.08;75.17
72612;BME280;60655;52.182;4.474;2024-03-29T00:44:27;98764.47;;;9.99;75.16
72612;BME280;60655;52.182;4.474;2024-03-29T00:46:28;98762.63;;;10.00;75.32
72612;BME280;60655;52.182;4.474;2024-03-29T00:48:29;98771.66;;;10.04;75.07
72612;BME280;60655;52.182;4.474;2024-03-29T00:50:30;98766.06;;;10.00;74.91
72612;BME280;60655;52.182;4.474;2024-03-29T00:52:31;98781.72;;;10.12;74.61
72612;BME280;60655;52.182;4.474;2024-03-29T00:54:32;98772.44;;;9.99;75.03
72612;BME280;60655;52.182;4.474;2024-03-29T00:56:33;98775.63;;;10.01;74.66
72612;BME280;60655;52.182;4.474;2024-03-29T00:58:34;98776.97;;;10.09;74.30
72612;BME280;60655;52.182;4.474;2024-03-29T01:00:35;98766.09;;;10.10;74.35
72612;BME280;60655;52.182;4.474;2024-03-29T01:02:36;98784.41;;;10.07;74.08
72612;BME280;60655;52.182;4.474;2024-03-29T01:04:37;98780.69;;;10.08;73.97
72612;BME280;60655;52.182;4.474;2024-03-29T01:06:39;98787.03;;;10.02;74.27
72612;BME280;60655;52.182;4.474;2024-03-29T01:08:43;98787.56;;;10.14;74.04
72612;BME280;60655;52.182;4.474;2024-03-29T01:10:44;98771.91;;;10.02;74.08
72612;BME280;60655;52.182;4.474;2024-03-29T01:12:45;98791.03;;;10.04;73.68
72612;BME280;60655;52.182;4.474;2024-03-29T01:14:47;98777.78;;;10.09;73.58
72612;BME280;60655;52.182;4.474;2024-03-29T01:16:48;98782.78;;;10.11;73.77
72612;BME280;60655;52.182;4.474;2024-03-29T01:18:49;98773.25;;;10.10;73.50
72612;BME280;60655;52.182;4.474;2024-03-29T01:20:50;98773.50;;;10.03;73.98
72612;BME280;60655;52.182;4.474;2024-03-29T01:22:51;98770.31;;;10.16;73.40
72612;BME280;60655;52.182;4.474;2024-03-29T01:24:52;98781.47;;;10.13;73.39
72612;BME280;60655;52.182;4.474;2024-03-29T01:26:52;98779.63;;;10.09;73.26
72612;BME280;60655;52.182;4.474;2024-03-29T01:28:55;98776.19;;;10.08;73.54
72612;BME280;60655;52.182;4.474;2024-03-29T01:30:55;98778.00;;;10.13;73.29
72612;BME280;60655;52.182;4.474;2024-03-29T01:32:59;98777.50;;;10.06;73.30
72612;BME280;60655;52.182;4.474;2024-03-29T01:35:00;98772.47;;;10.09;73.55
72612;BME280;60655;52.182;4.474;2024-03-29T01:37:00;98781.47;;;10.13;73.45
72612;BME280;60655;52.182;4.474;2024-03-29T01:39:01;98776.72;;;10.21;72.77
72612;BME280;60655;52.182;4.474;2024-03-29T01:41:03;98772.19;;;10.16;72.97
72612;BME280;60655;52.182;4.474;2024-03-29T01:43:04;98779.34;;;10.15;72.82
72612;BME280;60655;52.182;4.474;2024-03-29T01:45:05;98769.28;;;10.18;73.04
72612;BME280;60655;52.182;4.474;2024-03-29T01:47:07;98762.91;;;10.13;72.92
72612;BME280;60655;52.182;4.474;2024-03-29T01:49:08;98768.22;;;10.19;73.14
72612;BME280;60655;52.182;4.474;2024-03-29T01:51:11;98760.25;;;10.13;72.79
72612;BME280;60655;52.182;4.474;2024-03-29T01:53:15;98759.44;;;10.13;72.97
72612;BME280;60655;52.182;4.474;2024-03-29T01:55:17;98765.81;;;10.17;73.14
72612;BME280;60655;52.182;4.474;2024-03-29T01:57:18;98762.38;;;10.16;73.04
72612;BME280;60655;52.182;4.474;2024-03-29T01:59:19;98758.38;;;10.14;72.82
72612;BME280;60655;52.182;4.474;2024-03-29T02:01:21;98763.44;;;10.15;73.06
72612;BME280;60655;52.182;4.474;2024-03-29T02:03:22;98765.06;;;10.22;72.65
72612;BME280;60655;52.182;4.474;2024-03-29T02:05:24;98762.91;;;10.19;72.61
72612;BME280;60655;52.182;4.474;2024-03-29T02:07:25;98756.81;;;10.18;72.64
72612;BME280;60655;52.182;4.474;2024-03-29T02:09:26;98769.03;;;10.19;72.27
72612;BME280;60655;52.182;4.474;2024-03-29T02:11:27;98761.56;;;10.16;72.42
72612;BME280;60655;52.182;4.474;2024-03-29T02:13:28;98749.66;;;10.08;72.83
72612;BME280;60655;52.182;4.474;2024-03-29T02:15:30;98771.91;;;10.18;72.53
72612;BME280;60655;52.182;4.474;2024-03-29T02:17:32;98769.84;;;10.20;72.28
72612;BME280;60655;52.182;4.474;2024-03-29T02:19:33;98766.09;;;10.15;72.30
72612;BME280;60655;52.182;4.474;2024-03-29T02:21:37;98764.75;;;10.13;72.46
72612;BME280;60655;52.182;4.474;2024-03-29T02:23:44;98770.59;;;10.15;72.24
72612;BME280;60655;52.182;4.474;2024-03-29T02:25:47;98787.31;;;10.15;71.86
72612;BME280;60655;52.182;4.474;2024-03-29T02:27:48;98783.06;;;10.09;71.89
72612;BME280;60655;52.182;4.474;2024-03-29T02:29:51;98774.56;;;10.12;71.94
72612;BME280;60655;52.182;4.474;2024-03-29T02:31:52;98785.44;;;10.11;71.97
72612;BME280;60655;52.182;4.474;2024-03-29T02:33:53;98774.56;;;10.18;71.58
72612;BME280;60655;52.182;4.474;2024-03-29T02:35:54;98779.34;;;10.15;71.62
72612;BME280;60655;52.182;4.474;2024-03-29T02:37:55;98782.53;;;10.18;71.63
72612;BME280;60655;52.182;4.474;2024-03-29T02:39:55;98785.44;;;10.16;71.83
72612;BME280;60655;52.182;4.474;2024-03-29T02:41:56;98788.91;;;10.16;71.92
72612;BME280;60655;52.182;4.474;2024-03-29T02:43:57;98787.34;;;10.21;71.45
72612;BME280;60655;52.182;4.474;2024-03-29T02:45:58;98780.44;;;10.09;72.12
72612;BME280;60655;52.182;4.474;2024-03-29T02:47:59;98786.53;;;10.10;72.02
72612;BME280;60655;52.182;4.474;2024-03-29T02:50:00;98787.84;;;10.12;71.88
72612;BME280;60655;52.182;4.474;2024-03-29T02:52:01;98793.66;;;10.14;71.96
72612;BME280;60655;52.182;4.474;2024-03-29T02:54:02;98796.34;;;10.09;71.72
72612;BME280;60655;52.182;4.474;2024-03-29T02:56:04;98787.84;;;10.12;72.04
72612;BME280;60655;52.182;4.474;2024-03-29T02:58:07;98786.22;;;10.11;71.87
72612;BME280;60655;52.182;4.474;2024-03-29T03:00:09;98803.25;;;10.10;72.22
72612;BME280;60655;52.182;4.474;2024-03-29T03:02:10;98791.56;;;10.16;71.82
72612;BME280;60655;52.182;4.474;2024-03-29T03:04:11;98797.66;;;10.17;71.84
72612;BME280;60655;52.182;4.474;2024-03-29T03:06:11;98790.47;;;10.12;72.11
72612;BME280;60655;52.182;4.474;2024-03-29T03:08:12;98797.13;;;10.15;72.22
72612;BME280;60655;52.182;4.474;2024-03-29T03:10:32;98797.13;;;10.15;72.21
72612;BME280;60655;52.182;4.474;2024-03-29T03:12:52;98805.34;;;10.08;72.28
72612;BME280;60655;52.182;4.474;2024-03-29T03:14:52;98810.91;;;10.07;72.23
72612;BME280;60655;52.182;4.474;2024-03-29T03:16:53;98802.94;;;10.02;72.12
72612;BME280;60655;52.182;4.474;2024-03-29T03:18:54;98807.47;;;10.01;72.48
72612;BME280;60655;52.182;4.474;2024-03-29T03:20:56;98804.81;;;10.01;72.42
72612;BME280;60655;52.182;4.474;2024-03-29T03:23:00;98809.56;;;9.99;72.52
72612;BME280;60655;52.182;4.474;2024-03-29T03:25:01;98820.19;;;9.99;71.94
72612;BME280;60655;52.182;4.474;2024-03-29T03:27:02;98829.22;;;10.03;72.35
72612;BME280;60655;52.182;4.474;2024-03-29T03:29:04;98822.31;;;10.02;71.99
72612;BME280;60655;52.182;4.474;2024-03-29T03:31:05;98815.41;;;9.96;71.85
72612;BME280;60655;52.182;4.474;2024-03-29T03:33:07;98822.28;;;9.97;71.92
72612;BME280;60655;52.182;4.474;2024-03-29T03:35:08;98824.72;;;10.04;71.46
72612;BME280;60655;52.182;4.474;2024-03-29T03:37:10;98811.72;;;10.02;71.38
72612;BME280;60655;52.182;4.474;2024-03-29T03:39:11;98823.66;;;10.05;71.12
72612;BME280;60655;52.182;4.474;2024-03-29T03:41:11;98817.53;;;10.04;70.72
72612;BME280;60655;52.182;4.474;2024-03-29T03:43:13;98831.88;;;10.03;71.20
72612;BME280;60655;52.182;4.474;2024-03-29T03:45:14;98815.69;;;10.05;70.41
72612;BME280;60655;52.182;4.474;2024-03-29T03:47:15;98812.53;;;10.08;70.13
72612;BME280;60655;52.182;4.474;2024-03-29T03:49:16;98813.56;;;10.12;70.72
72612;BME280;60655;52.182;4.474;2024-03-29T03:51:17;98811.97;;;10.06;70.55
72612;BME280;60655;52.182;4.474;2024-03-29T03:53:17;98824.72;;;10.09;70.78
72612;BME280;60655;52.182;4.474;2024-03-29T03:55:18;98831.34;;;10.06;70.78
72612;BME280;60655;52.182;4.474;2024-03-29T03:57:19;98829.47;;;10.02;70.73
72612;BME280;60655;52.182;4.474;2024-03-29T03:59:20;98834.53;;;10.08;70.88
72612;BME280;60655;52.182;4.474;2024-03-29T04:01:21;98844.34;;;10.08;71.00
72612;BME280;60655;52.182;4.474;2024-03-29T04:03:22;98846.22;;;10.07;70.97
72612;BME280;60655;52.182;4.474;2024-03-29T04:05:23;98843.78;;;10.01;71.06
72612;BME280;60655;52.182;4.474;2024-03-29T04:07:25;98843.00;;;10.00;71.42
72612;BME280;60655;52.182;4.474;2024-03-29T04:09:26;98843.00;;;10.00;70.89
72612;BME280;60655;52.182;4.474;2024-03-29T04:11:27;98844.06;;;9.99;71.18
72612;BME280;60655;52.182;4.474;2024-03-29T04:13:29;98835.03;;;9.95;70.97
72612;BME280;60655;52.182;4.474;2024-03-29T04:15:30;98847.75;;;9.93;71.28
72612;BME280;60655;52.182;4.474;2024-03-29T04:17:33;98850.97;;;10.00;71.27
72612;BME280;60655;52.182;4.474;2024-03-29T04:19:34;98846.16;;;9.92;71.49
72612;BME280;60655;52.182;4.474;2024-03-29T04:21:34;98844.81;;;9.90;71.82
72612;BME280;60655;52.182;4.474;2024-03-29T04:23:36;98845.66;;;10.00;71.38
72612;BME280;60655;52.182;4.474;2024-03-29T04:25:37;98844.56;;;9.96;71.47
72612;BME280;60655;52.182;4.474;2024-03-29T04:27:38;98838.75;;;9.99;71.62
72612;BME280;60655;52.182;4.474;2024-03-29T04:29:39;98845.09;;;9.93;71.66
72612;BME280;60655;52.182;4.474;2024-03-29T04:31:40;98848.78;;;9.92;71.95
72612;BME280;60655;52.182;4.474;2024-03-29T04:33:41;98845.88;;;9.89;71.76
72612;BME280;60655;52.182;4.474;2024-03-29T04:35:55;98849.56;;;9.88;71.73
72612;BME280;60655;52.182;4.474;2024-03-29T04:37:56;98843.72;;;9.86;72.44
72612;BME280;60655;52.182;4.474;2024-03-29T04:39:57;98840.81;;;9.87;72.08
72612;BME280;60655;52.182;4.474;2024-03-29T04:41:58;98842.16;;;9.90;72.26
72612;BME280;60655;52.182;4.474;2024-03-29T04:44:02;98834.19;;;9.79;72.23
72612;BME280;60655;52.182;4.474;2024-03-29T04:46:11;98852.75;;;9.79;72.39
72612;BME280;60655;52.182;4.474;2024-03-29T04:48:13;98850.91;;;9.80;72.78
72612;BME280;60655;52.182;4.474;2024-03-29T04:50:14;98843.97;;;9.74;73.04
72612;BME280;60655;52.182;4.474;2024-03-29T04:52:15;98868.91;;;9.78;73.42
72612;BME280;60655;52.182;4.474;2024-03-29T04:54:17;98858.31;;;9.78;73.27
72612;BME280;60655;52.182;4.474;2024-03-29T04:56:18;98858.03;;;9.74;73.38
72612;BME280;60655;52.182;4.474;2024-03-29T04:58:19;98860.88;;;9.63;73.64
72612;BME280;60655;52.182;4.474;2024-03-29T05:00:20;98863.00;;;9.66;73.76
72612;BME280;60655;52.182;4.474;2024-03-29T05:02:21;98869.66;;;9.68;74.15
72612;BME280;60655;52.182;4.474;2024-03-29T05:04:24;98863.31;;;9.74;74.24
72612;BME280;60655;52.182;4.474;2024-03-29T05:06:29;98861.44;;;9.70;74.22
72612;BME280;60655;52.182;4.474;2024-03-29T05:08:30;98869.41;;;9.70;74.58
72612;BME280;60655;52.182;4.474;2024-03-29T05:10:31;98875.25;;;9.72;74.30
72612;BME280;60655;52.182;4.474;2024-03-29T05:12:32;98862.69;;;9.57;74.88
72612;BME280;60655;52.182;4.474;2024-03-29T05:14:33;98866.72;;;9.65;74.57
72612;BME280;60655;52.182;4.474;2024-03-29T05:16:34;98864.91;;;9.70;74.78
72612;BME280;60655;52.182;4.474;2024-03-29T05:18:35;98866.19;;;9.63;74.82
72612;BME280;60655;52.182;4.474;2024-03-29T05:20:36;98877.03;;;9.61;75.22
72612;BME280;60655;52.182;4.474;2024-03-29T05:22:37;98864.53;;;9.57;75.44
72612;BME280;60655;52.182;4.474;2024-03-29T05:24:38;98873.91;;;9.69;75.12
72612;BME280;60655;52.182;4.474;2024-03-29T05:26:39;98873.06;;;9.64;75.51
72612;BME280;60655;52.182;4.474;2024-03-29T05:28:40;98868.50;;;9.54;75.46
72612;BME280;60655;52.182;4.474;2024-03-29T05:30:41;98871.97;;;9.50;75.91
72612;BME280;60655;52.182;4.474;2024-03-29T05:32:42;98882.56;;;9.50;76.20
72612;BME280;60655;52.182;4.474;2024-03-29T05:34:43;98882.59;;;9.60;76.19
72612;BME280;60655;52.182;4.474;2024-03-29T05:36:44;98871.38;;;9.42;76.93
72612;BME280;60655;52.182;4.474;2024-03-29T05:38:46;98888.38;;;9.46;77.16
72612;BME280;60655;52.182;4.474;2024-03-29T05:40:47;98891.03;;;9.46;77.62
72612;BME280;60655;52.182;4.474;2024-03-29T05:42:48;98899.47;;;9.43;78.02
72612;BME280;60655;52.182;4.474;2024-03-29T05:44:49;98901.59;;;9.41;78.23
72612;BME280;60655;52.182;4.474;2024-03-29T05:46:50;98917.75;;;9.40;78.76
72612;BME280;60655;52.182;4.474;2024-03-29T05:48:51;98921.44;;;9.39;79.03
72612;BME280;60655;52.182;4.474;2024-03-29T05:50:51;98922.19;;;9.34;79.54
72612;BME280;60655;52.182;4.474;2024-03-29T05:52:52;98914.44;;;9.23;79.98
72612;BME280;60655;52.182;4.474;2024-03-29T05:54:53;98926.91;;;9.22;80.49
72612;BME280;60655;52.182;4.474;2024-03-29T05:56:55;98920.81;;;9.22;80.72
72612;BME280;60655;52.182;4.474;2024-03-29T05:58:56;98925.81;;;9.18;81.01
72612;BME280;60655;52.182;4.474;2024-03-29T06:00:57;98924.47;;;9.16;81.05
72612;BME280;60655;52.182;4.474;2024-03-29T06:02:58;98936.09;;;9.14;81.40
72612;BME280;60655;52.182;4.474;2024-03-29T06:04:59;98942.19;;;9.15;81.56
72612;BME280;60655;52.182;4.474;2024-03-29T06:07:00;98940.59;;;9.14;81.77
72612;BME280;60655;52.182;4.474;2024-03-29T06:09:01;98938.69;;;9.09;82.56
72612;BME280;60655;52.182;4.474;2024-03-29T06:11:02;98942.91;;;9.05;83.38
72612;BME280;60655;52.182;4.474;2024-03-29T06:13:03;98935.72;;;9.01;83.68
72612;BME280;60655;52.182;4.474;2024-03-29T06:15:08;98934.13;;;9.00;84.02
72612;BME280;60655;52.182;4.474;2024-03-29T06:17:28;98945.31;;;9.07;84.19
72612;BME280;60655;52.182;4.474;2024-03-29T06:19:28;98954.09;;;9.12;84.13
72612;BME280;60655;52.182;4.474;2024-03-29T06:21:30;98945.09;;;9.13;84.27
72612;BME280;60655;52.182;4.474;2024-03-29T06:23:39;98948.25;;;9.10;84.48
72612;BME280;60655;52.182;4.474;2024-03-29T06:25:40;98954.41;;;9.16;84.51
72612;BME280;60655;52.182;4.474;2024-03-29T06:27:41;98953.09;;;9.19;84.94
72612;BME280;60655;52.182;4.474;2024-03-29T06:29:44;98943.75;;;9.11;84.99
72612;BME280;60655;52.182;4.474;2024-03-29T06:31:45;98962.59;;;9.14;85.05
72612;BME280;60655;52.182;4.474;2024-03-29T06:33:46;98954.09;;;9.12;85.30
72612;BME280;60655;52.182;4.474;2024-03-29T06:35:53;98945.91;;;9.14;85.39
72612;BME280;60655;52.182;4.474;2024-03-29T06:37:56;98945.31;;;9.07;86.09
72612;BME280;60655;52.182;4.474;2024-03-29T06:39:57;98951.50;;;9.18;86.65
72612;BME280;60655;52.182;4.474;2024-03-29T06:41:59;98931.34;;;9.17;86.16
72612;BME280;60655;52.182;4.474;2024-03-29T06:43:59;98946.63;;;9.41;86.06
72612;BME280;60655;52.182;4.474;2024-03-29T06:46:00;98948.31;;;9.58;85.07
72612;BME280;60655;52.182;4.474;2024-03-29T06:48:03;98946.22;;;9.60;84.49
72612;BME280;60655;52.182;4.474;2024-03-29T06:50:05;98938.56;;;9.63;84.45
72612;BME280;60655;52.182;4.474;2024-03-29T06:52:06;98940.13;;;9.59;85.28
72612;BME280;60655;52.182;4.474;2024-03-29T06:54:07;98931.69;;;9.67;85.67
72612;BME280;60655;52.182;4.474;2024-03-29T06:56:08;98945.50;;;9.69;85.25
72612;BME280;60655;52.182;4.474;2024-03-29T06:58:08;98923.13;;;9.50;85.65
72612;BME280;60655;52.182;4.474;2024-03-29T07:00:11;98959.97;;;9.52;86.36
72612;BME280;60655;52.182;4.474;2024-03-29T07:02:12;98957.31;;;9.52;86.84
72612;BME280;60655;52.182;4.474;2024-03-29T07:04:13;98956.34;;;9.68;87.36
72612;BME280;60655;52.182;4.474;2024-03-29T07:06:14;98955.34;;;9.74;86.54
72612;BME280;60655;52.182;4.474;2024-03-29T07:08:15;98957.47;;;9.82;86.63
72612;BME280;60655;52.182;4.474;2024-03-29T07:10:16;98967.59;;;9.90;86.82
72612;BME280;60655;52.182;4.474;2024-03-29T07:12:17;98970.28;;;9.95;86.30
72612;BME280;60655;52.182;4.474;2024-03-29T07:14:19;98966.03;;;9.94;86.51
72612;BME280;60655;52.182;4.474;2024-03-29T07:16:20;98963.94;;;9.96;86.59
72612;BME280;60655;52.182;4.474;2024-03-29T07:18:21;98970.28;;;9.95;86.30
72612;BME280;60655;52.182;4.474;2024-03-29T07:20:22;98979.78;;;9.86;86.57
72612;BME280;60655;52.182;4.474;2024-03-29T07:22:23;98971.03;;;9.80;86.56
72612;BME280;60655;52.182;4.474;2024-03-29T07:24:24;98974.19;;;9.77;87.03
72612;BME280;60655;52.182;4.474;2024-03-29T07:26:25;98968.38;;;9.80;87.00
72612;BME280;60655;52.182;4.474;2024-03-29T07:28:26;98972.94;;;9.95;86.86
72612;BME280;60655;52.182;4.474;2024-03-29T07:30:27;98969.59;;;10.10;86.10
72612;BME280;60655;52.182;4.474;2024-03-29T07:32:29;98977.13;;;10.33;85.66
72612;BME280;60655;52.182;4.474;2024-03-29T07:34:30;98982.19;;;10.40;85.19
72612;BME280;60655;52.182;4.474;2024-03-29T07:36:31;98978.22;;;10.37;85.46
72612;BME280;60655;52.182;4.474;2024-03-29T07:38:35;98969.66;;;10.25;85.07
72612;BME280;60655;52.182;4.474;2024-03-29T07:40:36;98988.28;;;10.30;84.96
72612;BME280;60655;52.182;4.474;2024-03-29T07:42:41;98979.41;;;10.14;84.76
72612;BME280;60655;52.182;4.474;2024-03-29T07:44:42;98986.66;;;10.29;84.40
72612;BME280;60655;52.182;4.474;2024-03-29T07:46:43;98997.31;;;10.34;83.95
72612;BME280;60655;52.182;4.474;2024-03-29T07:48:46;98987.69;;;10.23;84.18
72612;BME280;60655;52.182;4.474;2024-03-29T07:50:47;98975.19;;;10.19;84.43
72612;BME280;60655;52.182;4.474;2024-03-29T07:52:48;98979.13;;;10.16;84.70
72612;BME280;60655;52.182;4.474;2024-03-29T07:54:49;98977.00;;;10.08;85.25
72612;BME280;60655;52.182;4.474;2024-03-29T07:56:50;98989.47;;;10.12;85.27
72612;BME280;60655;52.182;4.474;2024-03-29T07:58:54;98989.00;;;10.21;85.47
72612;BME280;60655;52.182;4.474;2024-03-29T08:00:55;98998.13;;;10.35;85.27
72612;BME280;60655;52.182;4.474;2024-03-29T08:02:57;98997.34;;;10.44;84.01
72612;BME280;60655;52.182;4.474;2024-03-29T08:04:58;98999.25;;;10.59;84.00
72612;BME280;60655;52.182;4.474;2024-03-29T08:06:59;98999.81;;;10.61;83.08
72612;BME280;60655;52.182;4.474;2024-03-29T08:09:00;98984.94;;;10.60;83.34
72612;BME280;60655;52.182;4.474;2024-03-29T08:11:01;98994.78;;;10.65;82.70
72612;BME280;60655;52.182;4.474;2024-03-29T08:13:02;99001.13;;;10.64;83.15
72612;BME280;60655;52.182;4.474;2024-03-29T08:15:04;99022.66;;;10.77;82.54
72612;BME280;60655;52.182;4.474;2024-03-29T08:17:05;99007.56;;;10.83;82.22
72612;BME280;60655;52.182;4.474;2024-03-29T08:19:10;98994.56;;;11.02;82.04
72612;BME280;60655;52.182;4.474;2024-03-29T08:21:11;98978.38;;;11.08;80.81
72612;BME280;60655;52.182;4.474;2024-03-29T08:23:14;98993.75;;;10.91;80.55
72612;BME280;60655;52.182;4.474;2024-03-29T08:25:15;98999.88;;;10.92;81.16
72612;BME280;60655;52.182;4.474;2024-03-29T08:27:16;99000.94;;;10.96;81.76
72612;BME280;60655;52.182;4.474;2024-03-29T08:29:17;98998.81;;;10.88;82.08
72612;BME280;60655;52.182;4.474;2024-03-29T08:31:18;99005.41;;;10.75;82.63
72612;BME280;60655;52.182;4.474;2024-03-29T08:33:19;99021.41;;;11.00;82.82
72612;BME280;60655;52.182;4.474;2024-03-29T08:35:20;99028.31;;;11.01;82.02
72612;BME280;60655;52.182;4.474;2024-03-29T08:37:21;99028.84;;;11.03;81.70
72612;BME280;60655;52.182;4.474;2024-03-29T08:39:22;99026.44;;;10.92;81.53
72612;BME280;60655;52.182;4.474;2024-03-29T08:41:23;99037.56;;;10.83;82.29
72612;BME280;60655;52.182;4.474;2024-03-29T08:43:24;99017.84;;;10.69;82.82
72612;BME280;60655;52.182;4.474;2024-03-29T08:45:25;99033.00;;;10.74;82.44
72612;BME280;60655;52.182;4.474;2024-03-29T08:47:26;99030.63;;;10.77;83.42
72612;BME280;60655;52.182;4.474;2024-03-29T08:49:30;99029.31;;;10.75;83.26
72612;BME280;60655;52.182;4.474;2024-03-29T08:51:31;99032.25;;;10.78;82.77
72612;BME280;60655;52.182;4.474;2024-03-29T08:53:32;99044.47;;;10.85;82.29
72612;BME280;60655;52.182;4.474;2024-03-29T08:55:34;99043.97;;;10.93;82.63
72612;BME280;60655;52.182;4.474;2024-03-29T08:57:35;99036.28;;;10.91;82.07
72612;BME280;60655;52.182;4.474;2024-03-29T08:59:36;99053.28;;;10.95;81.83
72612;BME280;60655;52.182;4.474;2024-03-29T09:01:40;99056.22;;;11.04;81.55
72612;BME280;60655;52.182;4.474;2024-03-29T09:03:42;99048.78;;;11.11;81.53
72612;BME280;60655;52.182;4.474;2024-03-29T09:05:43;99045.59;;;11.14;80.46
72612;BME280;60655;52.182;4.474;2024-03-29T09:07:44;99043.25;;;11.23;80.81
72612;BME280;60655;52.182;4.474;2024-03-29T09:09:46;99041.38;;;11.28;80.34
72612;BME280;60655;52.182;4.474;2024-03-29T09:11:47;99040.31;;;11.19;80.47
72612;BME280;60655;52.182;4.474;2024-03-29T09:13:48;99036.03;;;11.28;80.11
72612;BME280;60655;52.182;4.474;2024-03-29T09:15:49;99034.22;;;11.24;80.63
72612;BME280;60655;52.182;4.474;2024-03-29T09:17:50;99044.81;;;11.19;80.63
72612;BME280;60655;52.182;4.474;2024-03-29T09:19:55;99065.03;;;11.25;80.54
72612;BME280;60655;52.182;4.474;2024-03-29T09:21:56;99042.72;;;11.36;80.82
72612;BME280;60655;52.182;4.474;2024-03-29T09:23:57;99051.78;;;11.50;80.60
72612;BME280;60655;52.182;4.474;2024-03-29T09:25:58;99052.31;;;11.52;80.43
72612;BME280;60655;52.182;4.474;2024-03-29T09:27:58;99066.91;;;11.60;80.05
72612;BME280;60655;52.182;4.474;2024-03-29T09:29:59;99052.81;;;11.64;80.27
72612;BME280;60655;52.182;4.474;2024-03-29T09:32:00;99050.47;;;11.78;79.93
72612;BME280;60655;52.182;4.474;2024-03-29T09:34:02;99066.41;;;11.88;79.58
72612;BME280;60655;52.182;4.474;2024-03-29T09:36:04;99066.94;;;11.95;78.20
72612;BME280;60655;52.182;4.474;2024-03-29T09:38:05;99071.16;;;12.16;76.87
72612;BME280;60655;52.182;4.474;2024-03-29T09:40:07;99079.91;;;12.27;75.75
72612;BME280;60655;52.182;4.474;2024-03-29T09:42:10;99079.69;;;12.08;75.42
72612;BME280;60655;52.182;4.474;2024-03-29T09:44:15;99081.78;;;12.16;75.05
72612;BME280;60655;52.182;4.474;2024-03-29T09:46:18;99084.22;;;11.98;76.24
72612;BME280;60655;52.182;4.474;2024-03-29T09:48:19;99077.84;;;11.99;76.61
72612;BME280;60655;52.182;4.474;2024-03-29T09:50:20;99083.44;;;12.02;76.79
72612;BME280;60655;52.182;4.474;2024-03-29T09:52:21;99077.31;;;11.97;77.25
72612;BME280;60655;52.182;4.474;2024-03-29T09:54:23;99066.94;;;11.85;77.95
72612;BME280;60655;52.182;4.474;2024-03-29T09:56:27;99070.66;;;11.94;77.57
72612;BME280;60655;52.182;4.474;2024-03-29T09:58:29;99067.19;;;12.04;77.90
72612;BME280;60655;52.182;4.474;2024-03-29T10:00:31;99072.53;;;11.99;77.30
72612;BME280;60655;52.182;4.474;2024-03-29T10:02:33;99085.56;;;11.95;77.62
72612;BME280;60655;52.182;4.474;2024-03-29T10:04:34;99080.78;;;11.82;77.99
72612;BME280;60655;52.182;4.474;2024-03-29T10:06:37;99074.38;;;11.73;77.87
72612;BME280;60655;52.182;4.474;2024-03-29T10:08:40;99068.78;;;11.84;78.81
72612;BME280;60655;52.182;4.474;2024-03-29T10:10:42;99073.00;;;12.21;78.54
72612;BME280;60655;52.182;4.474;2024-03-29T10:12:44;99069.44;;;12.61;76.99
72612;BME280;60655;52.182;4.474;2024-03-29T10:14:48;99059.84;;;12.60;74.82
72612;BME280;60655;52.182;4.474;2024-03-29T10:17:19;99068.66;;;12.50;74.67
72612;BME280;60655;52.182;4.474;2024-03-29T10:19:21;99074.31;;;12.34;75.47
72612;BME280;60655;52.182;4.474;2024-03-29T10:21:25;99079.09;;;12.37;76.27
72612;BME280;60655;52.182;4.474;2024-03-29T10:23:27;99068.53;;;12.11;76.85
72612;BME280;60655;52.182;4.474;2024-03-29T10:25:32;99082.06;;;12.20;77.37
72612;BME280;60655;52.182;4.474;2024-03-29T10:27:34;99085.53;;;12.15;77.87
72612;BME280;60655;52.182;4.474;2024-03-29T10:29:35;99077.56;;;12.10;77.30
72612;BME280;60655;52.182;4.474;2024-03-29T10:31:36;99069.03;;;12.18;76.59
72612;BME280;60655;52.182;4.474;2024-03-29T10:33:37;99077.00;;;12.29;77.72
72612;BME280;60655;52.182;4.474;2024-03-29T10:35:44;99076.41;;;12.47;76.60
72612;BME280;60655;52.182;4.474;2024-03-29T10:37:45;99078.94;;;12.77;75.35
72612;BME280;60655;52.182;4.474;2024-03-29T10:39:46;99058.41;;;12.83;74.60
72612;BME280;60655;52.182;4.474;2024-03-29T10:41:47;99090.25;;;13.08;73.55
72612;BME280;60655;52.182;4.474;2024-03-29T10:43:48;99096.75;;;12.92;72.63
72612;BME280;60655;52.182;4.474;2024-03-29T10:45:52;99098.34;;;12.93;72.82
72612;BME280;60655;52.182;4.474;2024-03-29T10:47:55;99085.84;;;12.89;72.78